sensor_id;sensor_type;location;lat;lon;timestamp;P1;durP1;ratioP1;P2;durP2;ratioP2
42094;SDS011;27753;55.724;37.612;2024-01-06T00:01:59;13.88;;;7.80;;
42094;SDS011;27753;55.724;37.612;2024-01-06T00:04:26;9.93;;;6.88;;
42094;SDS011;27753;55.724;37.612;2024-01-06T00:06:52;17.98;;;8.02;;
42094;SDS011;27753;55.724;37.612;2024-01-06T00:09:18;15.37;;;9.03;;
42094;SDS011;27753;55.724;37.612;2024-01-06T00:11:44;15.90;;;6.47;;
42094;SDS011;27753;55.724;37.612;2024-01-06T00:14:10;13.17;;;6.63;;
42094;SDS011;27753;55.724;37.612;2024-01-06T00:16:36;14.27;;;7.17;;
42094;SDS011;27753;55.724;37.612;2024-01-06T00:19:01;11.50;;;6.50;;
42094;SDS011;27753;55.724;37.612;2024-01-06T00:21:27;15.07;;;7.17;;
42094;SDS011;27753;55.724;37.612;2024-01-06T00:23:53;10.57;;;4.90;;
42094;SDS011;27753;55.724;37.612;2024-01-06T00:26:21;12.18;;;5.78;;
42094;SDS011;27753;55.724;37.612;2024-01-06T00:28:47;8.13;;;5.33;;
42094;SDS011;27753;55.724;37.612;2024-01-06T00:31:14;11.48;;;5.68;;
42094;SDS011;27753;55.724;37.612;2024-01-06T00:33:44;11.60;;;5.15;;
42094;SDS011;27753;55.724;37.612;2024-01-06T00:36:10;11.73;;;6.77;;
42094;SDS011;27753;55.724;37.612;2024-01-06T00:38:36;4.47;;;3.77;;
42094;SDS011;27753;55.724;37.612;2024-01-06T00:41:02;10.70;;;5.77;;
42094;SDS011;27753;55.724;37.612;2024-01-06T00:43:28;9.10;;;5.37;;
42094;SDS011;27753;55.724;37.612;2024-01-06T00:45:53;12.37;;;5.13;;
42094;SDS011;27753;55.724;37.612;2024-01-06T00:48:19;9.43;;;4.97;;
42094;SDS011;27753;55.724;37.612;2024-01-06T00:50:45;11.90;;;4.53;;
42094;SDS011;27753;55.724;37.612;2024-01-06T00:53:11;11.70;;;6.73;;
42094;SDS011;27753;55.724;37.612;2024-01-06T00:55:38;13.55;;;4.13;;
42094;SDS011;27753;55.724;37.612;2024-01-06T00:58:03;10.67;;;5.73;;
42094;SDS011;27753;55.724;37.612;2024-01-06T01:00:29;17.43;;;8.27;;
42094;SDS011;27753;55.724;37.612;2024-01-06T01:02:55;15.17;;;5.50;;
42094;SDS011;27753;55.724;37.612;2024-01-06T01:05:23;10.95;;;5.13;;
42094;SDS011;27753;55.724;37.612;2024-01-06T01:07:49;11.67;;;7.33;;
42094;SDS011;27753;55.724;37.612;2024-01-06T01:10:15;9.10;;;5.40;;
42094;SDS011;27753;55.724;37.612;2024-01-06T01:12:41;12.70;;;5.40;;
42094;SDS011;27753;55.724;37.612;2024-01-06T01:15:07;13.10;;;5.63;;
42094;SDS011;27753;55.724;37.612;2024-01-06T01:17:33;13.35;;;7.10;;
42094;SDS011;27753;55.724;37.612;2024-01-06T01:19:58;9.17;;;5.27;;
42094;SDS011;27753;55.724;37.612;2024-01-06T01:22:24;11.47;;;5.33;;
42094;SDS011;27753;55.724;37.612;2024-01-06T01:24:50;7.43;;;4.40;;
42094;SDS011;27753;55.724;37.612;2024-01-06T01:27:16;15.17;;;6.93;;
42094;SDS011;27753;55.724;37.612;2024-01-06T01:29:42;11.30;;;5.57;;
42094;SDS011;27753;55.724;37.612;2024-01-06T01:32:08;17.13;;;6.40;;
42094;SDS011;27753;55.724;37.612;2024-01-06T01:34:33;12.37;;;7.30;;
42094;SDS011;27753;55.724;37.612;2024-01-06T01:36:59;12.03;;;5.47;;
42094;SDS011;27753;55.724;37.612;2024-01-06T01:39:25;15.67;;;6.10;;
42094;SDS011;27753;55.724;37.612;2024-01-06T01:41:51;12.80;;;6.40;;
42094;SDS011;27753;55.724;37.612;2024-01-06T01:44:17;13.70;;;6.37;;
42094;SDS011;27753;55.724;37.612;2024-01-06T01:46:43;11.53;;;5.13;;
42094;SDS011;27753;55.724;37.612;2024-01-06T01:49:09;4.00;;;3.53;;
42094;SDS011;27753;55.724;37.612;2024-01-06T01:51:35;10.67;;;5.00;;
42094;SDS011;27753;55.724;37.612;2024-01-06T01:54:02;10.25;;;5.72;;
42094;SDS011;27753;55.724;37.612;2024-01-06T01:56:30;7.35;;;4.97;;
42094;SDS011;27753;55.724;37.612;2024-01-06T01:59:03;7.70;;;4.10;;
42094;SDS011;27753;55.724;37.612;2024-01-06T02:01:33;10.85;;;6.50;;
42094;SDS011;27753;55.724;37.612;2024-01-06T02:03:59;13.77;;;6.30;;
42094;SDS011;27753;55.724;37.612;2024-01-06T02:06:25;9.77;;;5.93;;
42094;SDS011;27753;55.724;37.612;2024-01-06T02:08:51;11.63;;;5.13;;
42094;SDS011;27753;55.724;37.612;2024-01-06T02:11:16;5.47;;;3.10;;
42094;SDS011;27753;55.724;37.612;2024-01-06T02:13:42;7.90;;;4.43;;
42094;SDS011;27753;55.724;37.612;2024-01-06T02:16:08;3.47;;;2.33;;
42094;SDS011;27753;55.724;37.612;2024-01-06T02:18:34;11.80;;;4.47;;
42094;SDS011;27753;55.724;37.612;2024-01-06T02:21:00;3.57;;;3.13;;
42094;SDS011;27753;55.724;37.612;2024-01-06T02:23:27;8.05;;;4.22;;
42094;SDS011;27753;55.724;37.612;2024-01-06T02:25:54;2.10;;;1.63;;
42094;SDS011;27753;55.724;37.612;2024-01-06T02:28:20;12.52;;;6.47;;
42094;SDS011;27753;55.724;37.612;2024-01-06T02:30:46;6.37;;;2.50;;
42094;SDS011;27753;55.724;37.612;2024-01-06T02:33:12;5.00;;;3.15;;
42094;SDS011;27753;55.724;37.612;2024-01-06T02:35:38;8.20;;;4.87;;
42094;SDS011;27753;55.724;37.612;2024-01-06T02:38:05;5.05;;;3.03;;
42094;SDS011;27753;55.724;37.612;2024-01-06T02:40:31;11.95;;;5.20;;
42094;SDS011;27753;55.724;37.612;2024-01-06T02:42:58;12.43;;;5.20;;
42094;SDS011;27753;55.724;37.612;2024-01-06T02:45:24;9.73;;;4.38;;
42094;SDS011;27753;55.724;37.612;2024-01-06T02:47:50;8.77;;;4.60;;
42094;SDS011;27753;55.724;37.612;2024-01-06T02:50:16;14.45;;;6.22;;
42094;SDS011;27753;55.724;37.612;2024-01-06T02:52:43;8.73;;;2.88;;
42094;SDS011;27753;55.724;37.612;2024-01-06T02:55:10;10.20;;;5.57;;
42094;SDS011;27753;55.724;37.612;2024-01-06T02:57:37;5.85;;;2.97;;
42094;SDS011;27753;55.724;37.612;2024-01-06T03:00:03;9.82;;;7.05;;
42094;SDS011;27753;55.724;37.612;2024-01-06T03:02:29;9.75;;;3.78;;
42094;SDS011;27753;55.724;37.612;2024-01-06T03:04:55;9.27;;;4.07;;
42094;SDS011;27753;55.724;37.612;2024-01-06T03:07:21;4.93;;;3.20;;
42094;SDS011;27753;55.724;37.612;2024-01-06T03:09:47;6.37;;;4.80;;
42094;SDS011;27753;55.724;37.612;2024-01-06T03:12:13;10.30;;;4.80;;
42094;SDS011;27753;55.724;37.612;2024-01-06T03:14:39;3.95;;;3.00;;
42094;SDS011;27753;55.724;37.612;2024-01-06T03:17:06;6.35;;;1.90;;
42094;SDS011;27753;55.724;37.612;2024-01-06T03:19:35;7.05;;;5.03;;
42094;SDS011;27753;55.724;37.612;2024-01-06T03:22:01;11.88;;;5.47;;
42094;SDS011;27753;55.724;37.612;2024-01-06T03:24:27;14.50;;;5.87;;
42094;SDS011;27753;55.724;37.612;2024-01-06T03:26:53;11.17;;;6.33;;
42094;SDS011;27753;55.724;37.612;2024-01-06T03:29:19;14.13;;;6.97;;
42094;SDS011;27753;55.724;37.612;2024-01-06T03:31:45;6.97;;;3.50;;
42094;SDS011;27753;55.724;37.612;2024-01-06T03:34:11;6.30;;;4.32;;
42094;SDS011;27753;55.724;37.612;2024-01-06T03:36:39;12.93;;;6.67;;
42094;SDS011;27753;55.724;37.612;2024-01-06T03:39:06;16.75;;;7.25;;
42094;SDS011;27753;55.724;37.612;2024-01-06T03:41:32;19.90;;;8.45;;
42094;SDS011;27753;55.724;37.612;2024-01-06T03:43:58;8.50;;;4.10;;
42094;SDS011;27753;55.724;37.612;2024-01-06T03:46:24;10.25;;;4.50;;
42094;SDS011;27753;55.724;37.612;2024-01-06T03:48:50;14.77;;;5.73;;
42094;SDS011;27753;55.724;37.612;2024-01-06T03:51:16;14.23;;;7.57;;
42094;SDS011;27753;55.724;37.612;2024-01-06T03:53:42;13.90;;;4.73;;
42094;SDS011;27753;55.724;37.612;2024-01-06T03:56:08;4.23;;;3.70;;
42094;SDS011;27753;55.724;37.612;2024-01-06T03:58:34;13.30;;;6.07;;
42094;SDS011;27753;55.724;37.612;2024-01-06T04:01:00;6.10;;;5.50;;
42094;SDS011;27753;55.724;37.612;2024-01-06T04:03:26;9.90;;;5.83;;
42094;SDS011;27753;55.724;37.612;2024-01-06T04:05:51;13.37;;;5.60;;
42094;SDS011;27753;55.724;37.612;2024-01-06T04:08:18;11.43;;;6.93;;
42094;SDS011;27753;55.724;37.612;2024-01-06T04:10:44;5.65;;;3.22;;
42094;SDS011;27753;55.724;37.612;2024-01-06T04:13:10;9.97;;;5.97;;
42094;SDS011;27753;55.724;37.612;2024-01-06T04:15:36;7.70;;;4.25;;
42094;SDS011;27753;55.724;37.612;2024-01-06T04:18:03;5.90;;;4.07;;
42094;SDS011;27753;55.724;37.612;2024-01-06T04:20:30;10.43;;;4.95;;
42094;SDS011;27753;55.724;37.612;2024-01-06T04:22:56;7.55;;;4.03;;
42094;SDS011;27753;55.724;37.612;2024-01-06T04:25:22;9.17;;;4.83;;
42094;SDS011;27753;55.724;37.612;2024-01-06T04:27:48;7.07;;;3.80;;
42094;SDS011;27753;55.724;37.612;2024-01-06T04:30:15;8.15;;;5.10;;
42094;SDS011;27753;55.724;37.612;2024-01-06T04:32:41;6.68;;;4.68;;
42094;SDS011;27753;55.724;37.612;2024-01-06T04:35:07;17.90;;;3.28;;
42094;SDS011;27753;55.724;37.612;2024-01-06T04:37:33;13.68;;;7.43;;
42094;SDS011;27753;55.724;37.612;2024-01-06T04:39:59;10.07;;;4.65;;
42094;SDS011;27753;55.724;37.612;2024-01-06T04:42:25;17.40;;;9.25;;
42094;SDS011;27753;55.724;37.612;2024-01-06T04:44:51;9.37;;;5.43;;
42094;SDS011;27753;55.724;37.612;2024-01-06T04:47:17;14.27;;;7.63;;
42094;SDS011;27753;55.724;37.612;2024-01-06T04:49:43;10.07;;;5.57;;
42094;SDS011;27753;55.724;37.612;2024-01-06T04:52:10;14.35;;;8.85;;
42094;SDS011;27753;55.724;37.612;2024-01-06T04:54:36;17.52;;;8.77;;
42094;SDS011;27753;55.724;37.612;2024-01-06T04:57:02;16.13;;;8.70;;
42094;SDS011;27753;55.724;37.612;2024-01-06T04:59:29;17.48;;;9.25;;
42094;SDS011;27753;55.724;37.612;2024-01-06T05:01:55;11.40;;;4.97;;
42094;SDS011;27753;55.724;37.612;2024-01-06T05:04:23;10.65;;;5.10;;
42094;SDS011;27753;55.724;37.612;2024-01-06T05:06:51;17.73;;;10.70;;
42094;SDS011;27753;55.724;37.612;2024-01-06T05:09:20;16.02;;;8.88;;
42094;SDS011;27753;55.724;37.612;2024-01-06T05:11:45;20.00;;;8.77;;
42094;SDS011;27753;55.724;37.612;2024-01-06T05:14:11;14.33;;;7.17;;
42094;SDS011;27753;55.724;37.612;2024-01-06T05:16:37;16.52;;;7.20;;
42094;SDS011;27753;55.724;37.612;2024-01-06T05:19:03;10.20;;;6.70;;
42094;SDS011;27753;55.724;37.612;2024-01-06T05:21:29;9.43;;;5.17;;
42094;SDS011;27753;55.724;37.612;2024-01-06T05:23:55;14.40;;;5.47;;
42094;SDS011;27753;55.724;37.612;2024-01-06T05:26:21;14.87;;;7.17;;
42094;SDS011;27753;55.724;37.612;2024-01-06T05:28:47;15.57;;;8.43;;
42094;SDS011;27753;55.724;37.612;2024-01-06T05:31:13;18.55;;;7.85;;
42094;SDS011;27753;55.724;37.612;2024-01-06T05:33:39;15.73;;;7.30;;
42094;SDS011;27753;55.724;37.612;2024-01-06T05:36:05;10.30;;;5.83;;
42094;SDS011;27753;55.724;37.612;2024-01-06T05:38:31;16.87;;;8.47;;
42094;SDS011;27753;55.724;37.612;2024-01-06T05:40:57;12.10;;;6.80;;
42094;SDS011;27753;55.724;37.612;2024-01-06T05:43:22;16.10;;;7.87;;
42094;SDS011;27753;55.724;37.612;2024-01-06T05:45:48;12.07;;;6.03;;
42094;SDS011;27753;55.724;37.612;2024-01-06T05:48:14;19.90;;;6.97;;
42094;SDS011;27753;55.724;37.612;2024-01-06T05:50:40;15.87;;;8.83;;
42094;SDS011;27753;55.724;37.612;2024-01-06T05:53:06;19.77;;;9.40;;
42094;SDS011;27753;55.724;37.612;2024-01-06T05:55:33;11.52;;;5.57;;
42094;SDS011;27753;55.724;37.612;2024-01-06T05:57:59;14.67;;;9.00;;
42094;SDS011;27753;55.724;37.612;2024-01-06T06:02:51;3.63;;;2.92;;
42094;SDS011;27753;55.724;37.612;2024-01-06T06:05:17;8.03;;;5.53;;
42094;SDS011;27753;55.724;37.612;2024-01-06T06:07:43;18.20;;;6.53;;
42094;SDS011;27753;55.724;37.612;2024-01-06T06:10:09;15.23;;;6.33;;
42094;SDS011;27753;55.724;37.612;2024-01-06T06:17:31;12.30;;;10.40;;
42094;SDS011;27753;55.724;37.612;2024-01-06T06:19:58;7.22;;;3.22;;
42094;SDS011;27753;55.724;37.612;2024-01-06T06:24:58;6.25;;;4.88;;
42094;SDS011;27753;55.724;37.612;2024-01-06T06:27:25;6.22;;;3.85;;
42094;SDS011;27753;55.724;37.612;2024-01-06T06:29:51;14.43;;;7.13;;
42094;SDS011;27753;55.724;37.612;2024-01-06T06:32:17;11.13;;;6.55;;
42094;SDS011;27753;55.724;37.612;2024-01-06T06:34:43;7.47;;;5.33;;
42094;SDS011;27753;55.724;37.612;2024-01-06T06:37:09;14.88;;;5.78;;
42094;SDS011;27753;55.724;37.612;2024-01-06T06:39:35;16.20;;;6.55;;
42094;SDS011;27753;55.724;37.612;2024-01-06T06:42:01;21.00;;;10.33;;
42094;SDS011;27753;55.724;37.612;2024-01-06T06:44:28;11.95;;;7.43;;
42094;SDS011;27753;55.724;37.612;2024-01-06T06:46:56;21.25;;;9.60;;
42094;SDS011;27753;55.724;37.612;2024-01-06T06:49:32;17.73;;;8.10;;
42094;SDS011;27753;55.724;37.612;2024-01-06T06:51:57;10.52;;;6.07;;
42094;SDS011;27753;55.724;37.612;2024-01-06T06:54:23;15.00;;;9.93;;
42094;SDS011;27753;55.724;37.612;2024-01-06T06:56:49;20.75;;;9.43;;
42094;SDS011;27753;55.724;37.612;2024-01-06T06:59:15;15.85;;;9.10;;
42094;SDS011;27753;55.724;37.612;2024-01-06T07:01:41;25.50;;;10.48;;
42094;SDS011;27753;55.724;37.612;2024-01-06T07:04:07;15.38;;;8.93;;
42094;SDS011;27753;55.724;37.612;2024-01-06T07:06:33;20.45;;;10.10;;
42094;SDS011;27753;55.724;37.612;2024-01-06T07:11:26;15.10;;;8.67;;
42094;SDS011;27753;55.724;37.612;2024-01-06T07:13:52;13.45;;;5.90;;
42094;SDS011;27753;55.724;37.612;2024-01-06T07:16:18;14.50;;;7.70;;
42094;SDS011;27753;55.724;37.612;2024-01-06T07:18:44;19.53;;;7.33;;
42094;SDS011;27753;55.724;37.612;2024-01-06T07:21:11;17.40;;;8.07;;
42094;SDS011;27753;55.724;37.612;2024-01-06T07:23:37;18.15;;;9.05;;
42094;SDS011;27753;55.724;37.612;2024-01-06T07:26:03;13.07;;;4.80;;
42094;SDS011;27753;55.724;37.612;2024-01-06T07:28:29;13.30;;;7.07;;
42094;SDS011;27753;55.724;37.612;2024-01-06T07:30:55;13.68;;;6.60;;
42094;SDS011;27753;55.724;37.612;2024-01-06T07:33:20;18.40;;;8.83;;
42094;SDS011;27753;55.724;37.612;2024-01-06T07:35:46;19.52;;;9.52;;
42094;SDS011;27753;55.724;37.612;2024-01-06T07:38:12;23.45;;;5.63;;
42094;SDS011;27753;55.724;37.612;2024-01-06T07:40:39;10.35;;;6.20;;
42094;SDS011;27753;55.724;37.612;2024-01-06T07:43:05;16.85;;;8.32;;
42094;SDS011;27753;55.724;37.612;2024-01-06T07:45:31;17.40;;;6.63;;
42094;SDS011;27753;55.724;37.612;2024-01-06T07:47:58;18.88;;;8.80;;
42094;SDS011;27753;55.724;37.612;2024-01-06T07:50:24;20.73;;;10.50;;
42094;SDS011;27753;55.724;37.612;2024-01-06T07:52:50;21.88;;;10.75;;
42094;SDS011;27753;55.724;37.612;2024-01-06T07:55:15;22.73;;;8.82;;
42094;SDS011;27753;55.724;37.612;2024-01-06T07:57:42;12.50;;;6.85;;
42094;SDS011;27753;55.724;37.612;2024-01-06T08:02:35;15.90;;;7.80;;
42094;SDS011;27753;55.724;37.612;2024-01-06T08:05:01;21.63;;;9.85;;
42094;SDS011;27753;55.724;37.612;2024-01-06T08:07:27;18.08;;;9.10;;
42094;SDS011;27753;55.724;37.612;2024-01-06T08:09:53;7.80;;;4.95;;
42094;SDS011;27753;55.724;37.612;2024-01-06T08:12:19;13.57;;;6.18;;
42094;SDS011;27753;55.724;37.612;2024-01-06T08:14:45;24.60;;;10.97;;
42094;SDS011;27753;55.724;37.612;2024-01-06T08:17:11;31.35;;;15.10;;
42094;SDS011;27753;55.724;37.612;2024-01-06T08:19:36;21.30;;;10.93;;
42094;SDS011;27753;55.724;37.612;2024-01-06T08:22:02;24.38;;;9.40;;
42094;SDS011;27753;55.724;37.612;2024-01-06T08:24:28;19.77;;;11.23;;
42094;SDS011;27753;55.724;37.612;2024-01-06T08:29:21;18.23;;;7.60;;
42094;SDS011;27753;55.724;37.612;2024-01-06T08:31:47;18.25;;;10.15;;
42094;SDS011;27753;55.724;37.612;2024-01-06T08:34:15;36.92;;;15.43;;
42094;SDS011;27753;55.724;37.612;2024-01-06T08:36:41;25.65;;;13.13;;
42094;SDS011;27753;55.724;37.612;2024-01-06T08:39:07;24.37;;;14.97;;
42094;SDS011;27753;55.724;37.612;2024-01-06T08:41:33;28.05;;;13.15;;
42094;SDS011;27753;55.724;37.612;2024-01-06T08:43:59;27.70;;;13.50;;
42094;SDS011;27753;55.724;37.612;2024-01-06T08:46:25;32.50;;;15.10;;
42094;SDS011;27753;55.724;37.612;2024-01-06T08:48:51;27.27;;;12.02;;
42094;SDS011;27753;55.724;37.612;2024-01-06T08:51:17;27.23;;;14.52;;
42094;SDS011;27753;55.724;37.612;2024-01-06T08:53:42;23.85;;;10.85;;
42094;SDS011;27753;55.724;37.612;2024-01-06T08:56:09;27.10;;;14.25;;
42094;SDS011;27753;55.724;37.612;2024-01-06T08:58:35;23.40;;;12.70;;
42094;SDS011;27753;55.724;37.612;2024-01-06T09:01:00;24.73;;;14.60;;
42094;SDS011;27753;55.724;37.612;2024-01-06T09:03:26;19.30;;;9.38;;
42094;SDS011;27753;55.724;37.612;2024-01-06T09:05:52;28.23;;;14.05;;
42094;SDS011;27753;55.724;37.612;2024-01-06T09:08:19;18.80;;;10.13;;
42094;SDS011;27753;55.724;37.612;2024-01-06T09:10:44;33.17;;;13.90;;
42094;SDS011;27753;55.724;37.612;2024-01-06T09:13:10;33.58;;;14.48;;
42094;SDS011;27753;55.724;37.612;2024-01-06T09:15:36;24.40;;;11.35;;
42094;SDS011;27753;55.724;37.612;2024-01-06T09:18:02;22.60;;;14.05;;
42094;SDS011;27753;55.724;37.612;2024-01-06T09:20:28;33.15;;;13.73;;
42094;SDS011;27753;55.724;37.612;2024-01-06T09:22:54;23.58;;;13.75;;
42094;SDS011;27753;55.724;37.612;2024-01-06T09:25:20;26.05;;;14.38;;
42094;SDS011;27753;55.724;37.612;2024-01-06T09:27:49;24.17;;;11.77;;
42094;SDS011;27753;55.724;37.612;2024-01-06T09:30:17;24.77;;;13.85;;
42094;SDS011;27753;55.724;37.612;2024-01-06T09:32:43;22.77;;;14.93;;
42094;SDS011;27753;55.724;37.612;2024-01-06T09:35:09;17.55;;;9.02;;
42094;SDS011;27753;55.724;37.612;2024-01-06T09:37:35;28.23;;;15.00;;
42094;SDS011;27753;55.724;37.612;2024-01-06T09:40:01;19.98;;;11.38;;
42094;SDS011;27753;55.724;37.612;2024-01-06T09:42:26;28.55;;;15.90;;
42094;SDS011;27753;55.724;37.612;2024-01-06T09:44:52;24.17;;;13.80;;
42094;SDS011;27753;55.724;37.612;2024-01-06T09:47:20;30.02;;;15.52;;
42094;SDS011;27753;55.724;37.612;2024-01-06T09:49:49;24.27;;;13.35;;
42094;SDS011;27753;55.724;37.612;2024-01-06T09:52:15;26.08;;;13.38;;
42094;SDS011;27753;55.724;37.612;2024-01-06T09:54:52;27.35;;;16.95;;
42094;SDS011;27753;55.724;37.612;2024-01-06T09:57:22;31.23;;;18.00;;
42094;SDS011;27753;55.724;37.612;2024-01-06T09:59:49;43.70;;;19.80;;
42094;SDS011;27753;55.724;37.612;2024-01-06T10:02:15;44.72;;;20.90;;
42094;SDS011;27753;55.724;37.612;2024-01-06T10:04:45;35.22;;;16.85;;
42094;SDS011;27753;55.724;37.612;2024-01-06T10:07:11;28.90;;;16.70;;
42094;SDS011;27753;55.724;37.612;2024-01-06T10:09:40;37.28;;;18.25;;
42094;SDS011;27753;55.724;37.612;2024-01-06T10:12:07;29.30;;;16.88;;
42094;SDS011;27753;55.724;37.612;2024-01-06T10:14:33;27.17;;;15.50;;
42094;SDS011;27753;55.724;37.612;2024-01-06T10:16:59;34.00;;;18.17;;
42094;SDS011;27753;55.724;37.612;2024-01-06T10:19:25;45.03;;;21.52;;
42094;SDS011;27753;55.724;37.612;2024-01-06T10:21:51;34.70;;;18.90;;
42094;SDS011;27753;55.724;37.612;2024-01-06T10:24:18;33.93;;;19.00;;
42094;SDS011;27753;55.724;37.612;2024-01-06T10:26:46;34.27;;;19.40;;
42094;SDS011;27753;55.724;37.612;2024-01-06T10:29:13;36.20;;;19.23;;
42094;SDS011;27753;55.724;37.612;2024-01-06T10:31:39;30.35;;;15.77;;
42094;SDS011;27753;55.724;37.612;2024-01-06T10:34:05;30.83;;;16.03;;
42094;SDS011;27753;55.724;37.612;2024-01-06T10:36:31;32.60;;;17.40;;
42094;SDS011;27753;55.724;37.612;2024-01-06T10:38:57;34.37;;;18.20;;
42094;SDS011;27753;55.724;37.612;2024-01-06T10:41:24;24.55;;;13.65;;
42094;SDS011;27753;55.724;37.612;2024-01-06T10:43:50;31.17;;;14.32;;
42094;SDS011;27753;55.724;37.612;2024-01-06T10:46:18;30.80;;;16.20;;
42094;SDS011;27753;55.724;37.612;2024-01-06T10:48:44;30.15;;;17.40;;
42094;SDS011;27753;55.724;37.612;2024-01-06T10:51:12;21.40;;;12.18;;
42094;SDS011;27753;55.724;37.612;2024-01-06T10:53:41;28.70;;;18.50;;
42094;SDS011;27753;55.724;37.612;2024-01-06T10:56:08;34.95;;;17.08;;
42094;SDS011;27753;55.724;37.612;2024-01-06T10:58:35;26.27;;;18.15;;
42094;SDS011;27753;55.724;37.612;2024-01-06T11:01:08;35.15;;;19.10;;
42094;SDS011;27753;55.724;37.612;2024-01-06T11:03:36;28.80;;;15.73;;
42094;SDS011;27753;55.724;37.612;2024-01-06T11:06:03;38.92;;;17.05;;
42094;SDS011;27753;55.724;37.612;2024-01-06T11:08:30;26.95;;;14.43;;
42094;SDS011;27753;55.724;37.612;2024-01-06T11:11:01;31.17;;;19.63;;
42094;SDS011;27753;55.724;37.612;2024-01-06T11:13:27;44.50;;;23.27;;
42094;SDS011;27753;55.724;37.612;2024-01-06T11:15:53;69.05;;;32.42;;
42094;SDS011;27753;55.724;37.612;2024-01-06T11:23:42;48.90;;;25.60;;
42094;SDS011;27753;55.724;37.612;2024-01-06T11:26:09;48.40;;;25.23;;
42094;SDS011;27753;55.724;37.612;2024-01-06T11:28:48;38.97;;;21.40;;
42094;SDS011;27753;55.724;37.612;2024-01-06T11:31:18;50.55;;;23.42;;
42094;SDS011;27753;55.724;37.612;2024-01-06T11:33:44;43.60;;;20.30;;
42094;SDS011;27753;55.724;37.612;2024-01-06T11:36:14;38.92;;;21.90;;
42094;SDS011;27753;55.724;37.612;2024-01-06T11:38:40;36.10;;;19.83;;
42094;SDS011;27753;55.724;37.612;2024-01-06T11:41:07;33.13;;;19.73;;
42094;SDS011;27753;55.724;37.612;2024-01-06T11:46:01;33.78;;;18.73;;
42094;SDS011;27753;55.724;37.612;2024-01-06T11:48:29;38.08;;;19.48;;
42094;SDS011;27753;55.724;37.612;2024-01-06T11:50:56;35.67;;;19.65;;
42094;SDS011;27753;55.724;37.612;2024-01-06T11:55:52;31.58;;;15.40;;
42094;SDS011;27753;55.724;37.612;2024-01-06T11:58:18;43.47;;;23.60;;
42094;SDS011;27753;55.724;37.612;2024-01-06T12:00:43;45.05;;;23.73;;
42094;SDS011;27753;55.724;37.612;2024-01-06T12:03:19;37.05;;;19.92;;
42094;SDS011;27753;55.724;37.612;2024-01-06T12:05:45;45.50;;;21.05;;
42094;SDS011;27753;55.724;37.612;2024-01-06T12:08:11;51.38;;;23.55;;
42094;SDS011;27753;55.724;37.612;2024-01-06T12:10:37;40.95;;;23.23;;
42094;SDS011;27753;55.724;37.612;2024-01-06T12:13:04;47.28;;;24.77;;
42094;SDS011;27753;55.724;37.612;2024-01-06T12:15:33;46.85;;;23.75;;
42094;SDS011;27753;55.724;37.612;2024-01-06T12:18:02;44.85;;;27.42;;
42094;SDS011;27753;55.724;37.612;2024-01-06T12:20:28;46.10;;;24.15;;
42094;SDS011;27753;55.724;37.612;2024-01-06T12:22:55;44.60;;;22.90;;
42094;SDS011;27753;55.724;37.612;2024-01-06T12:25:21;47.63;;;21.67;;
42094;SDS011;27753;55.724;37.612;2024-01-06T12:27:48;46.20;;;22.75;;
42094;SDS011;27753;55.724;37.612;2024-01-06T12:30:15;43.53;;;23.15;;
42094;SDS011;27753;55.724;37.612;2024-01-06T12:32:45;46.22;;;20.27;;
42094;SDS011;27753;55.724;37.612;2024-01-06T12:40:08;40.95;;;17.20;;
42094;SDS011;27753;55.724;37.612;2024-01-06T12:42:34;41.97;;;22.02;;
42094;SDS011;27753;55.724;37.612;2024-01-06T12:45:01;37.05;;;22.92;;
42094;SDS011;27753;55.724;37.612;2024-01-06T12:47:27;47.10;;;22.20;;
42094;SDS011;27753;55.724;37.612;2024-01-06T12:49:53;39.03;;;22.17;;
42094;SDS011;27753;55.724;37.612;2024-01-06T12:52:19;46.15;;;21.38;;
42094;SDS011;27753;55.724;37.612;2024-01-06T12:54:45;36.60;;;18.20;;
42094;SDS011;27753;55.724;37.612;2024-01-06T12:57:11;43.05;;;20.35;;
42094;SDS011;27753;55.724;37.612;2024-01-06T12:59:37;34.53;;;17.30;;
42094;SDS011;27753;55.724;37.612;2024-01-06T13:02:03;47.85;;;23.35;;
42094;SDS011;27753;55.724;37.612;2024-01-06T13:04:28;41.10;;;19.55;;
42094;SDS011;27753;55.724;37.612;2024-01-06T13:06:54;41.75;;;25.45;;
42094;SDS011;27753;55.724;37.612;2024-01-06T13:09:20;26.00;;;12.73;;
42094;SDS011;27753;55.724;37.612;2024-01-06T13:11:48;38.53;;;20.65;;
42094;SDS011;27753;55.724;37.612;2024-01-06T13:14:16;21.73;;;14.27;;
42094;SDS011;27753;55.724;37.612;2024-01-06T13:16:42;35.83;;;21.77;;
42094;SDS011;27753;55.724;37.612;2024-01-06T13:19:08;44.63;;;21.13;;
42094;SDS011;27753;55.724;37.612;2024-01-06T13:21:34;32.30;;;16.42;;
42094;SDS011;27753;55.724;37.612;2024-01-06T13:24:01;28.38;;;15.23;;
42094;SDS011;27753;55.724;37.612;2024-01-06T13:26:29;44.92;;;23.65;;
42094;SDS011;27753;55.724;37.612;2024-01-06T13:28:56;38.53;;;18.60;;
42094;SDS011;27753;55.724;37.612;2024-01-06T13:31:22;41.42;;;20.70;;
42094;SDS011;27753;55.724;37.612;2024-01-06T13:33:49;52.95;;;18.95;;
42094;SDS011;27753;55.724;37.612;2024-01-06T13:36:17;34.22;;;16.83;;
42094;SDS011;27753;55.724;37.612;2024-01-06T13:38:45;37.40;;;19.83;;
42094;SDS011;27753;55.724;37.612;2024-01-06T13:41:11;32.88;;;18.42;;
42094;SDS011;27753;55.724;37.612;2024-01-06T13:43:37;23.80;;;13.87;;
42094;SDS011;27753;55.724;37.612;2024-01-06T13:46:03;35.33;;;18.40;;
42094;SDS011;27753;55.724;37.612;2024-01-06T13:48:29;34.28;;;19.55;;
42094;SDS011;27753;55.724;37.612;2024-01-06T13:50:55;39.75;;;21.25;;
42094;SDS011;27753;55.724;37.612;2024-01-06T13:53:22;44.78;;;20.80;;
42094;SDS011;27753;55.724;37.612;2024-01-06T13:55:48;39.72;;;21.92;;
42094;SDS011;27753;55.724;37.612;2024-01-06T13:58:13;52.85;;;24.67;;
42094;SDS011;27753;55.724;37.612;2024-01-06T14:00:39;38.90;;;20.80;;
42094;SDS011;27753;55.724;37.612;2024-01-06T14:03:05;42.50;;;23.50;;
42094;SDS011;27753;55.724;37.612;2024-01-06T14:05:32;34.05;;;21.75;;
42094;SDS011;27753;55.724;37.612;2024-01-06T14:07:58;28.92;;;15.80;;
42094;SDS011;27753;55.724;37.612;2024-01-06T14:10:24;29.38;;;17.80;;
42094;SDS011;27753;55.724;37.612;2024-01-06T14:12:50;35.00;;;18.77;;
42094;SDS011;27753;55.724;37.612;2024-01-06T14:15:15;30.63;;;17.00;;
42094;SDS011;27753;55.724;37.612;2024-01-06T14:17:41;39.75;;;22.63;;
42094;SDS011;27753;55.724;37.612;2024-01-06T14:20:14;35.00;;;18.35;;
42094;SDS011;27753;55.724;37.612;2024-01-06T14:22:45;33.80;;;17.70;;
42094;SDS011;27753;55.724;37.612;2024-01-06T14:25:15;31.98;;;18.08;;
42094;SDS011;27753;55.724;37.612;2024-01-06T14:27:44;29.85;;;17.55;;
42094;SDS011;27753;55.724;37.612;2024-01-06T14:30:10;28.13;;;16.67;;
42094;SDS011;27753;55.724;37.612;2024-01-06T14:32:36;49.25;;;20.95;;
42094;SDS011;27753;55.724;37.612;2024-01-06T14:35:05;35.42;;;18.73;;
42094;SDS011;27753;55.724;37.612;2024-01-06T14:37:32;46.67;;;23.35;;
42094;SDS011;27753;55.724;37.612;2024-01-06T14:39:58;32.78;;;17.42;;
42094;SDS011;27753;55.724;37.612;2024-01-06T14:42:29;44.05;;;24.73;;
42094;SDS011;27753;55.724;37.612;2024-01-06T14:44:55;36.35;;;19.30;;
42094;SDS011;27753;55.724;37.612;2024-01-06T14:47:21;39.33;;;20.85;;